createdAt,value
2022-10-21T00:00:41.694Z,9.50
2022-10-21T00:03:09.519Z,8.60
2022-10-21T00:05:36.423Z,8.20
2022-10-21T00:17:50.741Z,8.25
2022-10-21T00:20:18.328Z,8.65
2022-10-21T00:22:45.539Z,8.03
2022-10-21T00:25:12.477Z,8.10
2022-10-21T00:27:39.807Z,8.00
2022-10-21T00:30:08.531Z,8.30
2022-10-21T00:32:35.840Z,8.68
2022-10-21T00:35:03.838Z,7.93
2022-10-21T00:37:32.332Z,9.13
2022-10-21T00:39:59.677Z,8.27
2022-10-21T00:42:42.151Z,8.60
2022-10-21T00:45:23.485Z,9.32
2022-10-21T00:48:04.057Z,9.68
2022-10-21T00:50:43.676Z,9.05
2022-10-21T00:53:14.779Z,9.05
2022-10-21T00:55:50.157Z,7.75
2022-10-21T00:58:20.507Z,9.07
2022-10-21T01:00:47.528Z,8.57
2022-10-21T01:03:15.128Z,10.55
2022-10-21T01:05:43.031Z,8.63
2022-10-21T01:08:10.225Z,8.10
2022-10-21T01:10:38.693Z,8.00
2022-10-21T01:13:48.993Z,8.57
2022-10-21T01:16:52.784Z,10.02
2022-10-21T01:19:50.025Z,9.65
2022-10-21T01:22:28.826Z,8.75
2022-10-21T01:25:24.546Z,9.68
2022-10-21T01:28:25.928Z,10.10
2022-10-21T01:31:01.424Z,9.70
2022-10-21T01:33:53.602Z,9.93
2022-10-21T01:37:03.631Z,9.13
2022-10-21T01:40:09.785Z,8.68
2022-10-21T01:42:51.545Z,9.73
2022-10-21T01:45:38.645Z,8.82
2022-10-21T01:48:13.595Z,9.20
2022-10-21T01:50:48.737Z,9.43
2022-10-21T01:53:16.984Z,8.52
2022-10-21T01:55:45.294Z,8.10
2022-10-21T01:58:18.341Z,9.50
2022-10-21T02:00:45.534Z,9.70
2022-10-21T02:03:17.298Z,10.15
2022-10-21T02:05:44.317Z,9.27
2022-10-21T02:08:11.160Z,8.38
2022-10-21T02:10:48.079Z,9.18
2022-10-21T02:13:30.479Z,10.15
2022-10-21T02:16:03.034Z,9.57
2022-10-21T02:18:29.967Z,8.90
2022-10-21T02:21:01.720Z,9.23
2022-10-21T02:23:39.235Z,9.40
2022-10-21T02:26:06.512Z,8.57
2022-10-21T02:28:33.957Z,8.82
2022-10-21T02:31:24.150Z,9.40
2022-10-21T02:33:57.692Z,8.35
2022-10-21T02:36:38.706Z,9.07
2022-10-21T02:39:17.926Z,6.38
2022-10-21T02:41:44.980Z,9.52
2022-10-21T02:44:12.017Z,8.75
2022-10-21T02:46:43.074Z,8.43
2022-10-21T02:49:10.551Z,8.95
2022-10-21T02:51:37.746Z,10.10
2022-10-21T02:54:04.772Z,9.60
2022-10-21T02:56:31.685Z,8.65
2022-10-21T02:58:58.543Z,10.25
2022-10-21T03:01:25.641Z,10.07
2022-10-21T03:03:52.488Z,9.93
2022-10-21T03:06:19.786Z,9.82
2022-10-21T03:08:46.686Z,10.15
2022-10-21T03:11:13.914Z,10.13
2022-10-21T03:13:40.720Z,9.27
2022-10-21T03:16:08.151Z,9.38
2022-10-21T03:18:35.025Z,9.95
2022-10-21T03:21:02.050Z,11.10
2022-10-21T03:23:29.003Z,10.70
2022-10-21T03:25:55.824Z,10.50
2022-10-21T03:28:22.711Z,9.68
2022-10-21T03:30:49.748Z,9.75
2022-10-21T03:33:16.701Z,11.68
2022-10-21T03:35:43.731Z,9.55
2022-10-21T03:38:10.763Z,10.80
2022-10-21T03:40:37.618Z,9.27
2022-10-21T03:43:04.637Z,9.60
2022-10-21T03:45:31.861Z,9.43
2022-10-21T03:47:58.736Z,10.32
2022-10-21T03:50:26.782Z,11.05
2022-10-21T03:52:54.464Z,10.07
2022-10-21T03:55:24.023Z,10.10
2022-10-21T03:57:51.608Z,10.32
2022-10-21T04:00:18.504Z,9.80
2022-10-21T04:02:45.346Z,11.05
2022-10-21T04:05:12.685Z,8.88
2022-10-21T04:07:39.861Z,10.93
2022-10-21T04:10:08.551Z,11.10
2022-10-21T04:12:35.719Z,10.80
2022-10-21T04:15:03.483Z,10.80
2022-10-21T04:17:30.443Z,10.82
2022-10-21T04:20:00.594Z,12.30
2022-10-21T04:22:27.883Z,11.20
2022-10-21T04:24:54.845Z,10.60
2022-10-21T04:27:21.896Z,9.93
2022-10-21T04:29:48.931Z,9.43
2022-10-21T04:32:16.139Z,9.98
2022-10-21T04:34:43.073Z,10.32
2022-10-21T04:37:10.257Z,9.68
2022-10-21T04:39:37.046Z,10.38
2022-10-21T04:42:04.284Z,10.32
2022-10-21T04:44:31.310Z,9.55
2022-10-21T04:46:58.239Z,9.15
2022-10-21T04:49:25.190Z,10.20
2022-10-21T04:51:52.250Z,9.43
2022-10-21T04:54:19.251Z,9.65
2022-10-21T04:56:46.267Z,10.70
2022-10-21T04:59:13.275Z,9.77
2022-10-21T05:01:40.395Z,10.05
2022-10-21T05:04:07.779Z,9.98
2022-10-21T05:06:34.619Z,9.65
2022-10-21T05:09:01.613Z,10.60
2022-10-21T05:11:28.647Z,11.02
2022-10-21T05:13:55.552Z,10.48
2022-10-21T05:16:23.926Z,10.63
2022-10-21T05:18:50.896Z,10.63
2022-10-21T05:21:17.776Z,10.95
2022-10-21T05:23:44.730Z,9.68
2022-10-21T05:26:11.722Z,11.13
2022-10-21T05:28:38.653Z,11.50
2022-10-21T05:31:05.826Z,10.40
2022-10-21T05:33:32.731Z,10.85
2022-10-21T05:36:07.753Z,10.38
2022-10-21T05:38:35.762Z,11.88
2022-10-21T05:41:03.446Z,11.50
2022-10-21T05:43:33.387Z,10.57
2022-10-21T05:46:00.279Z,11.25
2022-10-21T05:48:27.125Z,10.75
2022-10-21T05:50:55.490Z,12.95
2022-10-21T05:53:23.986Z,12.05
2022-10-21T05:56:05.661Z,13.32
2022-10-21T06:01:00.899Z,12.07
2022-10-21T06:03:30.984Z,12.05
2022-10-21T06:05:59.716Z,11.55
2022-10-21T06:08:27.940Z,12.63
2022-10-21T06:11:06.810Z,11.55
2022-10-21T06:13:34.253Z,11.68
2022-10-21T06:16:01.388Z,11.40
2022-10-21T06:18:28.789Z,11.15
2022-10-21T06:20:56.030Z,11.35
2022-10-21T06:23:23.184Z,11.88
2022-10-21T06:26:02.038Z,10.85
2022-10-21T06:28:30.891Z,11.57
2022-10-21T06:30:58.140Z,11.15
2022-10-21T06:33:27.188Z,12.10
2022-10-21T06:35:55.737Z,10.65
2022-10-21T06:38:24.107Z,10.52
2022-10-21T06:40:51.111Z,11.00
2022-10-21T06:43:18.650Z,11.73
2022-10-21T06:45:45.928Z,12.27
2022-10-21T06:48:13.749Z,12.13
2022-10-21T06:50:41.148Z,12.07
2022-10-21T06:53:08.349Z,11.80
2022-10-21T06:55:35.483Z,12.35
2022-10-21T06:58:05.382Z,12.13
2022-10-21T07:00:32.360Z,12.10
2022-10-21T07:02:59.203Z,12.07
2022-10-21T07:05:26.304Z,13.13
2022-10-21T07:07:53.209Z,12.38
2022-10-21T07:10:22.667Z,12.27
2022-10-21T07:12:49.615Z,11.70
2022-10-21T07:15:16.667Z,13.27
2022-10-21T07:17:43.914Z,11.00
2022-10-21T07:20:11.071Z,13.50
2022-10-21T07:22:38.136Z,13.27
2022-10-21T07:25:05.962Z,12.90
2022-10-21T07:27:32.942Z,12.90
2022-10-21T07:30:00.698Z,14.05
2022-10-21T07:32:27.972Z,12.60
2022-10-21T07:34:55.004Z,12.52
2022-10-21T07:37:22.067Z,12.20
2022-10-21T07:39:48.973Z,12.98
2022-10-21T07:42:16.019Z,12.05
2022-10-21T07:44:43.099Z,11.27
2022-10-21T07:47:10.112Z,10.52
2022-10-21T07:49:37.252Z,11.73
2022-10-21T07:52:04.519Z,11.15
2022-10-21T07:54:31.688Z,11.88
2022-10-21T07:56:58.809Z,13.27
2022-10-21T07:59:25.977Z,12.35
2022-10-21T08:01:53.356Z,12.43
2022-10-21T08:04:24.682Z,11.75
2022-10-21T08:06:51.821Z,13.43
2022-10-21T08:09:18.844Z,13.00
2022-10-21T08:11:46.057Z,13.15
2022-10-21T08:14:13.283Z,12.60
2022-10-21T08:16:41.020Z,13.98
2022-10-21T08:19:08.892Z,13.88
2022-10-21T08:21:37.680Z,12.35
2022-10-21T08:24:05.758Z,13.00
2022-10-21T08:26:32.820Z,13.63
2022-10-21T08:29:00.346Z,14.02
2022-10-21T08:31:27.520Z,14.88
2022-10-21T08:33:55.289Z,14.43
2022-10-21T08:36:25.223Z,13.70
2022-10-21T08:38:53.671Z,12.90
2022-10-21T08:42:15.239Z,12.93
2022-10-21T08:45:06.937Z,13.48
2022-10-21T08:50:11.199Z,12.73
2022-10-21T08:52:59.229Z,13.23
2022-10-21T08:55:35.998Z,13.68
2022-10-21T08:58:04.146Z,12.10
2022-10-21T09:01:20.850Z,13.57
2022-10-21T09:04:05.993Z,15.32
2022-10-21T09:06:49.491Z,13.40
2022-10-21T09:09:45.070Z,14.23
2022-10-21T09:12:40.271Z,13.48
2022-10-21T09:15:32.526Z,11.52
2022-10-21T09:18:24.168Z,12.98
2022-10-21T09:21:11.414Z,11.85
2022-10-21T09:23:53.887Z,12.63
2022-10-21T09:26:43.877Z,14.15
2022-10-21T09:29:31.646Z,13.27
2022-10-21T09:32:13.932Z,13.52
2022-10-21T09:34:59.821Z,13.70
2022-10-21T09:37:48.154Z,13.63
2022-10-21T09:40:25.375Z,13.27
2022-10-21T09:42:59.073Z,12.85
2022-10-21T09:45:43.325Z,13.43
2022-10-21T09:48:19.858Z,13.07
2022-10-21T09:51:00.103Z,13.00
2022-10-21T09:53:52.963Z,12.65
2022-10-21T09:56:50.129Z,12.55
2022-10-21T09:59:19.522Z,11.52
2022-10-21T10:01:46.968Z,13.88
2022-10-21T10:04:33.408Z,11.77
2022-10-21T10:07:35.965Z,13.45
2022-10-21T10:10:33.450Z,11.55
2022-10-21T10:13:00.998Z,11.07
2022-10-21T10:15:36.467Z,10.63
2022-10-21T10:18:04.587Z,12.57
2022-10-21T10:20:31.541Z,11.75
2022-10-21T10:23:04.390Z,11.80
2022-10-21T10:25:36.783Z,11.55
2022-10-21T10:28:09.594Z,11.75
2022-10-21T10:30:42.422Z,10.93
2022-10-21T10:33:31.639Z,10.02
2022-10-21T10:36:05.596Z,11.63
2022-10-21T10:38:41.931Z,11.38
2022-10-21T10:41:11.755Z,11.68
2022-10-21T10:43:53.727Z,10.90
2022-10-21T10:46:31.822Z,10.50
2022-10-21T10:49:24.926Z,11.63
2022-10-21T10:52:09.350Z,11.43
2022-10-21T10:54:37.886Z,9.63
2022-10-21T10:57:34.099Z,9.40
2022-10-21T11:00:22.848Z,8.35
2022-10-21T11:03:09.824Z,11.10
2022-10-21T11:05:39.812Z,9.90
2022-10-21T11:11:04.842Z,10.10
2022-10-21T18:04:14.883Z,7.20
2022-10-21T18:14:05.300Z,7.20
2022-10-21T18:19:02.051Z,6.70
2022-10-21T18:23:57.943Z,5.80
2022-10-21T18:29:00.302Z,6.30
2022-10-21T18:31:32.202Z,6.40
2022-10-21T18:34:01.197Z,6.43
2022-10-21T18:36:28.422Z,5.77
2022-10-21T18:38:55.951Z,5.88
2022-10-21T18:41:22.973Z,5.72
2022-10-21T18:44:02.366Z,6.57
2022-10-21T18:46:31.075Z,6.22
2022-10-21T18:48:58.660Z,6.35
2022-10-21T18:51:25.759Z,6.28
2022-10-21T18:53:53.445Z,6.70
2022-10-21T18:56:22.825Z,6.75
2022-10-21T18:58:50.687Z,6.63
2022-10-21T19:01:19.380Z,7.35
2022-10-21T19:03:46.574Z,7.22
2022-10-21T19:06:39.047Z,6.65
2022-10-21T19:09:21.845Z,6.55
2022-10-21T19:11:49.340Z,6.30
2022-10-21T19:14:16.777Z,6.90
2022-10-21T19:16:45.018Z,7.75
2022-10-21T19:19:13.105Z,7.72
2022-10-21T19:21:39.988Z,8.00
2022-10-21T19:24:07.537Z,7.68
2022-10-21T19:26:37.060Z,6.60
2022-10-21T19:29:16.224Z,7.50
2022-10-21T19:34:16.966Z,7.97
2022-10-21T19:36:44.208Z,7.68
2022-10-21T19:39:12.117Z,8.43
2022-10-21T19:41:39.404Z,8.20
2022-10-21T19:44:06.356Z,7.43
2022-10-21T19:46:37.534Z,8.20
2022-10-21T19:49:06.670Z,7.50
2022-10-21T19:51:33.958Z,7.72
2022-10-21T19:54:04.965Z,8.80
2022-10-21T19:56:34.272Z,8.10
2022-10-21T19:59:02.915Z,7.82
2022-10-21T20:01:30.878Z,7.53
2022-10-21T20:03:59.559Z,7.20
2022-10-21T20:06:35.074Z,8.95
2022-10-21T20:09:09.751Z,7.93
2022-10-21T20:11:38.171Z,8.52
2022-10-21T20:14:06.256Z,9.07
2022-10-21T20:16:39.191Z,7.93
2022-10-21T20:19:10.210Z,8.48
2022-10-21T20:21:37.503Z,9.20
2022-10-21T20:24:05.175Z,8.87
2022-10-21T20:26:32.199Z,9.25
2022-10-21T20:29:04.534Z,8.50
2022-10-21T20:31:31.557Z,7.53
2022-10-21T20:33:58.591Z,7.20
2022-10-21T20:36:29.358Z,7.40
2022-10-21T20:38:58.711Z,7.47
2022-10-21T20:41:33.518Z,7.03
2022-10-21T20:44:04.900Z,7.18
2022-10-21T20:49:08.746Z,6.60
2022-10-21T20:51:38.050Z,6.95
2022-10-21T20:54:12.208Z,6.97
2022-10-21T20:56:40.634Z,7.65
2022-10-21T20:59:12.399Z,7.20
2022-10-21T21:01:42.633Z,7.38
2022-10-21T21:04:13.637Z,6.78
2022-10-21T21:06:49.705Z,6.63
2022-10-21T21:12:09.195Z,7.22
2022-10-21T21:14:36.372Z,6.60
2022-10-21T21:17:03.725Z,7.18
2022-10-21T21:19:30.670Z,7.40
2022-10-21T21:21:58.051Z,6.93
2022-10-21T21:24:25.270Z,8.02
2022-10-21T21:26:52.706Z,8.02
2022-10-21T21:29:19.682Z,7.35
2022-10-21T21:31:46.817Z,6.97
2022-10-21T21:34:13.955Z,6.93
2022-10-21T21:36:41.208Z,6.50
2022-10-21T21:39:08.808Z,6.07
2022-10-21T21:41:36.461Z,7.00
2022-10-21T21:44:05.160Z,6.40
2022-10-21T21:46:32.192Z,7.32
2022-10-21T21:49:05.126Z,7.00
2022-10-21T21:51:34.143Z,6.43
2022-10-21T21:54:01.063Z,7.28
2022-10-21T21:56:28.426Z,6.45
2022-10-21T21:58:58.577Z,6.53
2022-10-21T22:01:28.846Z,6.43
2022-10-21T22:03:56.855Z,7.05
2022-10-21T22:09:00.608Z,6.75
2022-10-21T22:11:31.933Z,6.03
2022-10-21T22:13:59.405Z,6.38
2022-10-21T22:16:30.431Z,6.47
2022-10-21T22:18:59.988Z,7.10
2022-10-21T22:21:27.713Z,6.55
2022-10-21T22:23:54.691Z,6.10
2022-10-21T22:26:23.287Z,7.03
2022-10-21T22:28:50.325Z,7.05
2022-10-21T22:31:18.613Z,7.65
2022-10-21T22:33:46.238Z,7.38
2022-10-21T22:36:14.292Z,7.38
2022-10-21T22:38:41.249Z,7.13
2022-10-21T22:41:12.234Z,7.97
2022-10-21T22:43:40.212Z,7.30
2022-10-21T22:46:21.451Z,7.57
2022-10-21T22:48:54.231Z,7.10
2022-10-21T22:51:21.514Z,7.60
2022-10-21T22:53:53.476Z,8.10
2022-10-21T22:56:26.293Z,7.25
2022-10-21T22:58:54.288Z,7.00
2022-10-21T23:01:21.333Z,7.53
2022-10-21T23:03:48.335Z,6.75
2022-10-21T23:06:15.698Z,6.95
2022-10-21T23:08:42.600Z,7.25
2022-10-21T23:11:09.541Z,6.18
2022-10-21T23:13:36.469Z,7.22
2022-10-21T23:16:03.608Z,7.13
2022-10-21T23:18:30.521Z,6.82
2022-10-21T23:20:57.315Z,6.60
2022-10-21T23:23:24.139Z,7.70
2022-10-21T23:25:51.192Z,7.63
2022-10-21T23:30:44.938Z,7.18
2022-10-21T23:33:11.884Z,6.80
2022-10-21T23:35:39.006Z,8.38
2022-10-21T23:38:06.309Z,8.52
2022-10-21T23:40:33.331Z,10.10
2022-10-21T23:43:00.247Z,9.55
2022-10-21T23:45:27.181Z,7.97
2022-10-21T23:47:54.156Z,8.18
2022-10-21T23:50:21.857Z,7.90
2022-10-21T23:52:48.761Z,7.55
2022-10-21T23:55:15.966Z,7.93
2022-10-21T23:57:43.457Z,10.13
